Spirit Of Tasmania II — VNSZ — position and weather

sailwx.info

Track history (hours):
 
Tides and Currents Weather Stations Pressure Air Temp Water Temp Dewpoint Dewpoint Depression Visibility Wind Speed Wind Dir Waves Ship Positions

Spirit Of Tasmania II

Last reported at 2020-Jan-24 00:00 UTC. Time now 2020-Jan-24 01:31 UTC.
Position S 40°24' E 145°54'.

Length 194.3 m; beam 25 m; draft 6.2 m.

Type: Ship. MMSI: 503433000.

Barometer 1005.5 mb
Air temperature 16.0 ° C
Water temperature 16.7 ° C

Date/timePositionNaut miles runAvg speedWind from/ knotsBaromVisibWave heightAir tempDewpointWater temp
2020-Jan-24 00:00S 40°24' E 145°54'1528.0 1005.5 16.0 16.7
2020-Jan-23 23:27S 40°37' E 146°03'3826.0
2020-Jan-23 22:00S 41°12' E 146°24'0 0.0 1004.0 14.4
2020-Jan-23 21:00S 41°12' E 146°24'0 0.0 1003.2 13.9 17.9
2020-Jan-23 20:00S 41°12' E 146°24'0 0.0 1002.3 13.6 17.9
2020-Jan-23 19:00S 41°12' E 146°24'1312.8 1001.6 13.3 18.1
2020-Jan-23 18:00S 41°00' E 146°18'2827.6 1001.3 13.9 16.9
2020-Jan-23 17:00S 40°36' E 146°00'2625.7 1002.2 15.1 16.6
2020-Jan-23 16:00S 40°12' E 145°48'2827.7 1002.9 15.3 16.4
2020-Jan-23 15:00S 39°48' E 145°30'2625.7 1003.6 15.5 16.7
2020-Jan-23 14:00S 39°24' E 145°18'2827.8 1004.3 15.3
2020-Jan-23 13:00S 39°00' E 145°00'2625.8 1004.8 15.6 17.6
2020-Jan-23 12:00S 38°36' E 144°48'1818.0 1004.9 16.0 18.5
2020-Jan-23 11:00S 38°18' E 144°48'1312.9 1004.8 16.3 19.6
2020-Jan-23 10:00S 38°06' E 144°54'1818.0 1005.1 17.4 20.5
2020-Jan-23 09:00S 37°48' E 144°54'0 0.0 1003.2 18.8 21.6
2020-Jan-23 08:00S 37°48' E 144°54'0 0.0 1001.5 19.7 20.8
2020-Jan-23 07:00S 37°48' E 144°54'0 0.0 1000.2 20.4 20.8
2020-Jan-23 06:00S 37°48' E 144°54'0 0.0 999.0 20.7 20.7
2020-Jan-23 04:00S 37°48' E 144°54'0 0.0 996.9 19.9 20.7
2020-Jan-23 03:00S 37°48' E 144°54'0 0.0 997.4 18.2 20.7
2020-Jan-23 02:00S 37°48' E 144°54'0 0.0 996.2 19.5 20.7
2020-Jan-23 01:00S 37°48' E 144°54'0 0.0 995.9 18.2 20.3
2020-Jan-23 00:00S 37°48' E 144°54'0 0.0 996.4 17.3 20.3
2020-Jan-22 23:00S 37°48' E 144°54'0 0.0 997.1 15.0 20.3
2020-Jan-22 22:00S 37°48' E 144°54'0 0.0 996.8 14.8 20.3
2020-Jan-22 21:00S 37°48' E 144°54'0 0.0 996.4 14.3 20.3
2020-Jan-22 20:00S 37°48' E 144°54'0 0.0 995.6 13.8 20.2
2020-Jan-22 19:00S 37°48' E 144°54'1212.0 995.9 13.2 20.3
2020-Jan-22 18:00S 38°00' E 144°54'1918.6 995.9 13.4 19.9
2020-Jan-22 17:00S 38°18' E 144°48'1312.9 997.6 12.3 18.3
2020-Jan-22 16:00S 38°30' E 144°42'2827.8 996.8 12.7 18.1
2020-Jan-22 15:00S 38°54' E 145°00'2625.7 997.4 12.8 17.5
2020-Jan-22 14:00S 39°18' E 145°12'2827.7 998.2 12.7 17.0
2020-Jan-22 13:00S 39°42' E 145°30'2625.7 997.1 13.4 16.7
2020-Jan-22 12:00S 40°06' E 145°42'2827.6 997.8 14.7 16.8
2020-Jan-22 11:00S 40°30' E 146°00'2625.7 996.8 15.6 17.2
2020-Jan-22 10:00S 40°54' E 146°12'2020.1 995.8 17.9 18.0
2020-Jan-22 09:00S 41°12' E 146°24'0 0.0 997.0 19.6 19.8
2020-Jan-22 08:00S 41°12' E 146°24'0 0.0 995.4 19.8 19.3
2020-Jan-22 07:00S 41°12' E 146°24'0 0.0 995.9 18.8 19.3
2020-Jan-22 05:00S 41°12' E 146°24'0 0.0 999.8 19.3 19.4
2020-Jan-22 04:00S 41°12' E 146°24'0 0.0 999.3 19.6 19.2
2020-Jan-22 03:00S 41°12' E 146°24'0 0.0 1000.8 19.6 19.0
2020-Jan-22 02:00S 41°12' E 146°24'0 0.0 1002.0 18.3 18.7
2020-Jan-22 01:00S 41°12' E 146°24'0 0.0 1003.1 17.8 18.5
2020-Jan-22 00:00S 41°12' E 146°24'0 0.0 1003.9 17.0 18.5
2020-Jan-21 23:00S 41°12' E 146°24'0 0.0 1004.7 16.2
2020-Jan-21 22:00S 41°12' E 146°24'0 0.0 1005.1 15.4 18.5
2020-Jan-21 21:00S 41°12' E 146°24'2 3.3 1005.3 14.5 18.8
2020-Jan-21 20:25S 41°11' E 146°22'2 4.5
2020-Jan-21 20:00S 41°12' E 146°24'0 0.0 1005.5 15.0 19.0
2020-Jan-21 19:00S 41°12' E 146°24'1312.8 1005.6 14.8 19.6
2020-Jan-21 18:00S 41°00' E 146°18'2827.6 1004.9 14.4 17.1
2020-Jan-21 17:00S 40°36' E 146°00'2827.6 1005.0 14.3 16.7
2020-Jan-21 16:00S 40°12' E 145°42'2625.7 1005.3 14.4 16.6
2020-Jan-21 15:00S 39°48' E 145°30'2827.7 1005.9 14.5 16.8
2020-Jan-21 14:00S 39°24' E 145°12'2625.7 1006.4 14.6 17.2
2020-Jan-21 13:00S 39°00' E 145°00'2625.8 1006.5 15.0 17.9
2020-Jan-21 12:00S 38°36' E 144°48'1918.6 1006.7 15.5 18.8
2020-Jan-21 11:00S 38°18' E 144°42'1111.2 1007.9 15.5 19.9
2020-Jan-21 10:00S 38°12' E 144°54'1818.0 1006.5 16.0 21.2
2020-Jan-21 09:00S 37°54' E 144°54'6 6.0 1008.3 17.9 23.3
2020-Jan-21 08:00S 37°48' E 144°54'0 0.0 1007.3 18.2 22.2
2020-Jan-21 07:00S 37°48' E 144°54'0 0.0 1007.2 18.2 22.1
2020-Jan-21 06:00S 37°48' E 144°54'0 0.0 1007.4 18.1 21.5
2020-Jan-21 05:00S 37°48' E 144°54'0 0.0 1007.8 18.7 21.2
2020-Jan-21 03:00S 37°48' E 144°54'0 0.0 1009.1 17.8 21.0
2020-Jan-21 02:00S 37°48' E 144°54'0 0.0 1009.9 17.4 21.0
2020-Jan-21 01:00S 37°48' E 144°54'0 0.0 1010.4 17.5 20.9
2020-Jan-21 00:00S 37°48' E 144°54'0 0.0 1010.6 17.7 20.7
2020-Jan-20 23:00S 37°48' E 144°54'0 0.0 1010.8 16.4 20.7
2020-Jan-20 22:00S 37°48' E 144°54'6 6.0 1010.5 15.5 20.7
2020-Jan-20 21:00S 37°54' E 144°54'1212.0 1009.6 14.7 20.8
2020-Jan-20 20:00S 38°06' E 144°54'1515.3 1008.3 15.7 19.9
2020-Jan-20 19:00S 38°18' E 144°42'1918.6 1008.6 15.2 18.4
2020-Jan-20 18:00S 38°36' E 144°48'2625.8 1005.6 15.1 17.9
2020-Jan-20 17:00S 39°00' E 145°00'2827.8 1004.4 14.8 17.4
2020-Jan-20 16:00S 39°24' E 145°18'2827.7 1003.7 14.8 17.0
2020-Jan-20 15:00S 39°48' E 145°36'3131.4 1003.1 14.9 16.8
2020-Jan-20 14:00S 40°18' E 145°48'2123.9 1003.0 15.4 16.9
2020-Jan-20 13:08S 40°36' E 146°02'3128.0
2020-Jan-20 12:01S 41°04' E 146°20'4223.4
2020-Jan-20 12:00S 41°06' E 146°24'5 5.2 1004.0 19.4 19.2
2020-Jan-20 11:00S 41°11' E 146°22'2122.9
2020-Jan-20 11:00S 41°12' E 146°24'0 0.0 1004.2 20.9 18.5
2020-Jan-20 10:00S 41°12' E 146°24'2 3.8 1003.6 20.7 18.6
2020-Jan-20 09:30S 41°11' E 146°22'0 0.0
2020-Jan-20 09:00S 41°11' E 146°22'22290.3
2020-Jan-20 09:00S 41°12' E 146°24'6 6.0 1003.2 21.2 18.7
2020-Jan-20 08:00S 41°06' E 146°24'2424.9 1002.8 18.3 17.7
2020-Jan-20 07:00S 40°45' E 146°07'3194.2
2020-Jan-20 07:00S 40°42' E 146°06'2625.7 1002.9 17.3 17.0
2020-Jan-20 06:00S 40°18' E 145°54'2322.7 1003.8 16.4 16.7
2020-Jan-20 05:00S 40°00' E 145°36'2625.7 1004.4 16.6 16.8
2020-Jan-20 04:00S 39°36' E 145°24'2827.7 1004.6 15.7 17.2
2020-Jan-20 03:00S 39°12' E 145°06'2625.7 1004.7 15.3 17.7
2020-Jan-20 02:00S 38°48' E 144°54'3333.1 1003.9 16.1 18.4
2020-Jan-20 01:00S 38°18' E 144°36'1414.1 1003.5 17.1 18.7
2020-Jan-20 00:00S 38°18' E 144°54'2424.0 1003.5 18.5 20.7
2020-Jan-19 23:00S 37°54' E 144°54'6 6.0 1003.4 19.3 22.0
2020-Jan-19 22:00S 37°48' E 144°54'0 0.0 1004.0 19.6 21.5
2020-Jan-19 21:00S 37°48' E 144°54'0 0.0 1003.9 18.9 21.6
2020-Jan-19 20:00S 37°48' E 144°54'1212.0 1003.9 19.1 22.2
2020-Jan-19 19:00S 38°00' E 144°54'1818.0 1003.8 18.9 20.5
2020-Jan-19 18:00S 38°18' E 144°54'1515.3 1003.7 18.0 19.7
2020-Jan-19 17:00S 38°24' E 144°36'2827.8 1003.7 17.8 18.4
2020-Jan-19 16:00S 38°48' E 144°54'2827.8 1005.3 17.1
2020-Jan-19 15:00S 39°12' E 145°12'2625.7 1006.5 16.9 17.2
2020-Jan-19 14:00S 39°36' E 145°24'2827.7 1006.7 16.7 16.9
2020-Jan-19 13:00S 40°00' E 145°42'3131.4 1007.6 16.6
2020-Jan-19 12:00S 40°30' E 145°54'2424.6 1010.2 16.4 16.9
2020-Jan-19 11:00S 40°50' E 146°11'4221.4
2020-Jan-19 11:00S 40°54' E 146°12'1021.4 1011.0 17.0 17.8
2020-Jan-19 10:30S 41°03' E 146°19'816.8
2020-Jan-19 10:00S 41°11' E 146°22'2135.5
2020-Jan-19 10:00S 41°12' E 146°24'0 0.0 1010.8 18.0 19.9
2020-Jan-19 09:00S 41°12' E 146°24'2 3.1 1009.7 17.8 18.5
2020-Jan-19 08:23S 41°11' E 146°22'2 4.9
2020-Jan-19 08:00S 41°12' E 146°24'0 0.0 1009.2 18.1 18.7
2020-Jan-19 07:00S 41°12' E 146°24'1021.3 1008.9 18.0 18.9
2020-Jan-19 06:31S 41°02' E 146°19'4328.3
2020-Jan-19 05:00S 40°24' E 145°54'2827.7 1007.7 16.5 16.6
2020-Jan-19 04:00S 40°00' E 145°36'2625.7 1007.8 16.7 16.7
2020-Jan-19 03:00S 39°36' E 145°24'2827.7 1006.7 16.8 17.2
2020-Jan-19 02:00S 39°12' E 145°06'2625.7 1006.4 17.6 17.7
2020-Jan-19 01:00S 38°48' E 144°54'3015.0 1005.6 18.4 18.4
2020-Jan-18 23:00S 38°18' E 144°54'2424.0 1006.2 18.6 20.3
2020-Jan-18 22:00S 37°54' E 144°54'6 6.0 1006.5 18.5 21.3
2020-Jan-18 21:00S 37°48' E 144°54'0 0.0 1006.1 18.1 20.9
2020-Jan-18 20:00S 37°48' E 144°54'6 3.0 1005.6 17.9 21.0
2020-Jan-18 18:00S 37°54' E 144°54'2424.0 1004.3 17.8 20.4
2020-Jan-18 17:00S 38°18' E 144°54'1414.1 1004.3 18.0 19.6
2020-Jan-18 16:00S 38°18' E 144°36'2625.8 1005.0 18.2 18.2
2020-Jan-18 15:00S 38°42' E 144°48'2322.8 1005.5 17.6 17.7
2020-Jan-18 14:00S 39°00' E 145°06'2625.7 1006.4 17.6 17.3
2020-Jan-18 13:00S 39°24' E 145°18'2827.7 1006.9 16.7 16.9
2020-Jan-18 12:00S 39°48' E 145°36'3131.4 1008.9 16.6 16.7
2020-Jan-18 11:00S 40°18' E 145°48'2827.6 1009.5 15.9 16.7
2020-Jan-18 10:00S 40°42' E 146°06'396.6 1010.4 15.7 17.2
2020-Jan-18 09:58S 40°40' E 146°04'2828.9
2020-Jan-18 09:00S 41°06' E 146°18'8 7.5 1011.0 16.4 18.5
2020-Jan-18 08:00S 41°12' E 146°24'0 0.0 1012.5 17.0 18.4
2020-Jan-18 07:00S 41°12' E 146°24'2 2.3 1012.5 17.0 18.5
2020-Jan-18 06:09S 41°11' E 146°22'212.4
2020-Jan-18 06:00S 41°12' E 146°24'227.4 1013.4 16.9 18.6
2020-Jan-18 05:55S 41°11' E 146°22'2 2.1
2020-Jan-18 05:00S 41°12' E 146°24'0 0.0 1013.6 16.8 18.8
2020-Jan-18 04:00S 41°12' E 146°24'0 0.0 1014.0 16.6 18.9
2020-Jan-18 03:00S 41°12' E 146°24'0 0.0 1014.5 17.1 18.8
2020-Jan-18 02:00S 41°12' E 146°24'230.9 1014.9 17.6 18.8
2020-Jan-18 01:56S 41°11' E 146°22'0 0.0
2020-Jan-18 01:00S 41°11' E 146°22'2118.7
2020-Jan-18 01:00S 41°12' E 146°24'2 1.9 1015.7 17.4 18.6
2020-Jan-18 00:00S 41°11' E 146°22'2118.5
2020-Jan-18 00:00S 41°12' E 146°24'0 0.0 1016.5 16.6 18.6
2020-Jan-17 23:00S 41°12' E 146°24'2827.6 1016.8 14.5 17.3
2020-Jan-17 22:00S 40°48' E 146°06'2625.7 1015.5 13.8 16.8
2020-Jan-17 21:00S 40°24' E 145°54'2827.7 1013.7 14.9 16.6
2020-Jan-17 20:00S 40°00' E 145°36'2625.7 1012.3 15.3 16.7
2020-Jan-17 19:00S 39°36' E 145°24'2827.7 1010.3 15.3 16.9
2020-Jan-17 18:00S 39°12' E 145°06'2625.7 1007.9 15.9 17.5
2020-Jan-17 17:00S 38°48' E 144°54'2625.8 1009.5 16.5 17.9
2020-Jan-17 16:00S 38°24' E 144°42'1111.2 1010.4 16.8 18.8
2020-Jan-17 15:00S 38°18' E 144°54'1818.0 1012.0 16.6 20.1
2020-Jan-17 14:00S 38°00' E 144°54'1212.0 1009.7 16.6 20.8
2020-Jan-17 13:00S 37°48' E 144°54'0 0.0 1010.8 16.4 20.7
2020-Jan-17 12:00S 37°48' E 144°54'0 0.0 1010.9 16.8 20.9
2020-Jan-17 11:00S 37°48' E 144°54'0 0.0 1010.6 17.2 21.0
2020-Jan-17 10:00S 37°48' E 144°54'1212.0 1010.2 18.1 22.2
2020-Jan-17 09:00S 38°00' E 144°54'1918.6 1009.4 18.4 20.2
2020-Jan-17 08:00S 38°18' E 144°48'1312.9 1010.5 18.7 18.8
2020-Jan-17 07:00S 38°30' E 144°42'3333.1 1012.1 17.4 18.0
2020-Jan-17 06:00S 39°00' E 145°00'2827.8 1013.8 16.4 17.4
2020-Jan-17 05:00S 39°24' E 145°18'2625.7 1015.0 16.0 17.0
2020-Jan-17 04:00S 39°48' E 145°30'2827.7 1016.0 15.4
2020-Jan-17 03:00S 40°12' E 145°48'2625.7 1016.7 15.7 16.9
2020-Jan-17 02:00S 40°36' E 146°00'2827.6 1017.2 15.6 17.3
2020-Jan-17 01:00S 41°00' E 146°18'1122.3 1017.3 15.7 18.2
2020-Jan-17 00:31S 41°10' E 146°22'2 4.4
2020-Jan-17 00:00S 41°12' E 146°24'0 0.0 1017.3 16.4 18.3
2020-Jan-16 23:00S 41°12' E 146°24'0 0.0 1017.4 14.8
2020-Jan-16 22:00S 41°12' E 146°24'0 0.0 1017.4 13.9 18.1
2020-Jan-16 21:00S 41°12' E 146°24'1918.6 1016.6 11.8 18.5
2020-Jan-16 20:00S 40°54' E 146°18'2827.6 1014.4 13.0 17.0
2020-Jan-16 19:00S 40°30' E 146°00'2827.6 1013.2 14.5 16.7
2020-Jan-16 18:00S 40°06' E 145°42'2625.7 1013.6 15.7 16.7
2020-Jan-16 17:00S 39°42' E 145°30'2827.7 1012.2 15.9 16.8
2020-Jan-16 16:00S 39°18' E 145°12'2625.7 1010.7 16.4 17.3
2020-Jan-16 15:00S 38°54' E 145°00'2625.8 1011.8 14.6 17.6
2020-Jan-16 14:00S 38°30' E 144°48'1212.0 1013.3 14.3 18.7
2020-Jan-16 13:00S 38°18' E 144°48'1918.6 1015.2 14.2 19.9
2020-Jan-16 12:00S 38°00' E 144°54'1212.0 1014.3 14.6
2020-Jan-16 11:00S 37°48' E 144°54'0 0.0 1014.9 15.6 21.3
2020-Jan-16 10:00S 37°48' E 144°54'0 0.0 1014.0 15.9 21.0
2020-Jan-16 09:00S 37°48' E 144°54'0 0.0 1013.4 16.1 21.2
2020-Jan-16 08:00S 37°48' E 144°54'1212.0 1013.0 16.6 21.5
2020-Jan-16 07:00S 38°00' E 144°54'1818.0 1013.3 16.3 20.4
2020-Jan-16 06:00S 38°18' E 144°54'1515.2 1012.4 15.7 19.3
2020-Jan-16 05:00S 38°30' E 144°42'2827.8 1013.3 15.6 18.2
2020-Jan-16 04:00S 38°54' E 145°00'2625.7 1012.9 15.3 17.5
2020-Jan-16 03:00S 39°18' E 145°12'2827.7 1012.0 14.9 17.1
2020-Jan-16 02:00S 39°42' E 145°30'2827.7 1010.3 15.2 16.9
2020-Jan-16 01:00S 40°06' E 145°48'4526.9 1008.6 15.5 16.8
2020-Jan-15 23:20S 40°48' E 146°10'1441.3
2020-Jan-15 23:00S 41°00' E 146°18'817.4 1006.1 17.6 18.2
2020-Jan-15 22:30S 41°08' E 146°22'4 8.6
2020-Jan-15 22:00S 41°12' E 146°24'0 0.0 1006.5 18.0 19.1
2020-Jan-15 21:00S 41°12' E 146°24'0 0.0 1006.2 18.0 18.9
2020-Jan-15 20:00S 41°12' E 146°24'2 2.4 1006.0 17.8 18.8
2020-Jan-15 19:11S 41°11' E 146°22'210.0
2020-Jan-15 19:00S 41°12' E 146°24'1312.8 1005.6 17.6 19.9
2020-Jan-15 18:01S 41°00' E 146°17'137.0
2020-Jan-15 18:00S 41°00' E 146°18'2827.6 1005.0 17.3 17.2
2020-Jan-15 17:00S 40°36' E 146°00'2625.7 1005.3 17.0 16.7
2020-Jan-15 16:00S 40°12' E 145°48'2827.7 1006.2 16.0 16.7
2020-Jan-15 15:00S 39°48' E 145°30'2827.7 1006.8 16.4
2020-Jan-15 14:00S 39°24' E 145°12'2625.7 1007.7 16.9 17.6
2020-Jan-15 13:00S 39°00' E 145°00'3131.4 1008.7 17.2 18.1
2020-Jan-15 12:00S 38°30' E 144°48'2412.2 1009.7 17.6 19.1
2020-Jan-15 10:00S 38°06' E 144°54'1818.0 1008.6 20.7 21.4
2020-Jan-15 09:00S 37°48' E 144°54'0 0.0 1009.1 20.0 22.0
2020-Jan-15 08:00S 37°48' E 144°54'0 0.0 1009.5 20.1 21.0
2020-Jan-15 07:00S 37°48' E 144°54'0 0.0 1007.7 20.9 21.1
2020-Jan-15 06:00S 37°48' E 144°54'0 0.0 1005.3 21.6 21.4
2020-Jan-15 05:00S 37°48' E 144°54'0 0.0 1003.2 26.7 20.9
2020-Jan-15 04:00S 37°48' E 144°54'0 0.0 1003.0 36.0 20.9
2020-Jan-15 03:00S 37°48' E 144°54'0 0.0 1004.8 35.3 21.0
2020-Jan-15 02:00S 37°48' E 144°54'0 0.0 1005.6 34.7 21.0
2020-Jan-15 01:00S 37°48' E 144°54'0 0.0 1006.4 33.8 21.1
2020-Jan-15 00:00S 37°48' E 144°54'0 0.0 1006.8 31.8 21.2
2020-Jan-14 23:00S 37°48' E 144°54'0 0.0 1007.5 30.4 21.2
2020-Jan-14 21:00S 37°48' E 144°54'0 0.0 1007.9 25.6 21.7
2020-Jan-14 20:00S 37°48' E 144°54'0 0.0 1007.8 22.8 21.8
2020-Jan-14 19:00S 37°48' E 144°54'1212.0 1007.8 22.6 23.0
2020-Jan-14 18:00S 38°00' E 144°54'1818.0 1007.6 21.3 20.7
2020-Jan-14 17:00S 38°18' E 144°54'1515.2 1007.1 23.0 19.5
2020-Jan-14 16:00S 38°30' E 144°42'2827.8 1008.3 20.5 18.5
2020-Jan-14 15:00S 38°54' E 145°00'2122.9 1009.3 19.3 17.9
2020-Jan-14 14:03S 39°14' E 145°11'572.0
2020-Jan-14 14:00S 39°18' E 145°12'2625.7 1010.9 18.7 17.6
2020-Jan-14 13:00S 39°42' E 145°24'2827.7 1011.7 17.1 17.1
2020-Jan-14 12:00S 40°06' E 145°42'1321.6 1013.5 16.9 17.0
2020-Jan-14 11:25S 40°17' E 145°50'1331.9
2020-Jan-14 11:00S 40°30' E 145°54'822.8 1014.9 17.7 17.2
2020-Jan-14 10:37S 40°36' E 146°02'1626.6
2020-Jan-14 10:00S 40°51' E 146°11'3209.9
2020-Jan-14 10:00S 40°54' E 146°12'2020.1 1015.4 18.0 18.0
2020-Jan-14 09:00S 41°12' E 146°24'0 0.0 1016.4 20.5 21.1
2020-Jan-14 08:00S 41°12' E 146°24'0 0.0 1015.8 20.8 18.9
2020-Jan-14 07:00S 41°12' E 146°24'2 1.9 1015.5 21.3 18.5
2020-Jan-14 06:00S 41°11' E 146°22'2185.7
2020-Jan-14 06:00S 41°12' E 146°24'2 3.9 1015.8 21.4 18.3
2020-Jan-14 05:31S 41°11' E 146°22'2 3.7
2020-Jan-14 05:00S 41°12' E 146°24'0 0.0 1016.0 22.1 18.2
2020-Jan-14 04:00S 41°12' E 146°24'0 0.0 1016.3 22.0 18.1
2020-Jan-14 03:00S 41°12' E 146°24'0 0.0 1016.9 21.7 18.2
2020-Jan-14 02:00S 41°12' E 146°24'0 0.0 1017.2 22.4 18.6
2020-Jan-14 01:00S 41°12' E 146°24'2105.7 1017.6 23.1 18.8
2020-Jan-14 00:58S 41°11' E 146°22'2 1.9
2020-Jan-14 00:00S 41°12' E 146°24'   1018.0 22.0 18.9
Track history (hours):
 
Tides and Currents Weather Stations Pressure Air Temp Water Temp Dewpoint Dewpoint Depression Visibility Wind Speed Wind Dir Waves Ship Positions

Spirit Of Tasmania II

Last reported at 2020-Jan-24 00:00 UTC. Time now 2020-Jan-24 01:31 UTC.
Position S 40°24' E 145°54'.

Length 194.3 m; beam 25 m; draft 6.2 m.

Type: Ship. MMSI: 503433000.

Barometer 1005.5 mb
Air temperature 16.0 ° C
Water temperature 16.7 ° C

Date/timePositionNaut miles runAvg speedWind from/ knotsBaromVisibWave heightAir tempDewpointWater temp
2020-Jan-24 00:00S 40°24' E 145°54'1528.0 1005.5 16.0 16.7
2020-Jan-23 23:27S 40°37' E 146°03'3826.0
2020-Jan-23 22:00S 41°12' E 146°24'0 0.0 1004.0 14.4
2020-Jan-23 21:00S 41°12' E 146°24'0 0.0 1003.2 13.9 17.9
2020-Jan-23 20:00S 41°12' E 146°24'0 0.0 1002.3 13.6 17.9
2020-Jan-23 19:00S 41°12' E 146°24'1312.8 1001.6 13.3 18.1
2020-Jan-23 18:00S 41°00' E 146°18'2827.6 1001.3 13.9 16.9
2020-Jan-23 17:00S 40°36' E 146°00'2625.7 1002.2 15.1 16.6
2020-Jan-23 16:00S 40°12' E 145°48'2827.7 1002.9 15.3 16.4
2020-Jan-23 15:00S 39°48' E 145°30'2625.7 1003.6 15.5 16.7
2020-Jan-23 14:00S 39°24' E 145°18'2827.8 1004.3 15.3
2020-Jan-23 13:00S 39°00' E 145°00'2625.8 1004.8 15.6 17.6
2020-Jan-23 12:00S 38°36' E 144°48'1818.0 1004.9 16.0 18.5
2020-Jan-23 11:00S 38°18' E 144°48'1312.9 1004.8 16.3 19.6
2020-Jan-23 10:00S 38°06' E 144°54'1818.0 1005.1 17.4 20.5
2020-Jan-23 09:00S 37°48' E 144°54'0 0.0 1003.2 18.8 21.6
2020-Jan-23 08:00S 37°48' E 144°54'0 0.0 1001.5 19.7 20.8
2020-Jan-23 07:00S 37°48' E 144°54'0 0.0 1000.2 20.4 20.8
2020-Jan-23 06:00S 37°48' E 144°54'0 0.0 999.0 20.7 20.7
2020-Jan-23 04:00S 37°48' E 144°54'0 0.0 996.9 19.9 20.7
2020-Jan-23 03:00S 37°48' E 144°54'0 0.0 997.4 18.2 20.7
2020-Jan-23 02:00S 37°48' E 144°54'0 0.0 996.2 19.5 20.7
2020-Jan-23 01:00S 37°48' E 144°54'0 0.0 995.9 18.2 20.3
2020-Jan-23 00:00S 37°48' E 144°54'0 0.0 996.4 17.3 20.3
2020-Jan-22 23:00S 37°48' E 144°54'0 0.0 997.1 15.0 20.3
2020-Jan-22 22:00S 37°48' E 144°54'0 0.0 996.8 14.8 20.3
2020-Jan-22 21:00S 37°48' E 144°54'0 0.0 996.4 14.3 20.3
2020-Jan-22 20:00S 37°48' E 144°54'0 0.0 995.6 13.8 20.2
2020-Jan-22 19:00S 37°48' E 144°54'1212.0 995.9 13.2 20.3
2020-Jan-22 18:00S 38°00' E 144°54'1918.6 995.9 13.4 19.9
2020-Jan-22 17:00S 38°18' E 144°48'1312.9 997.6 12.3 18.3
2020-Jan-22 16:00S 38°30' E 144°42'2827.8 996.8 12.7 18.1
2020-Jan-22 15:00S 38°54' E 145°00'2625.7 997.4 12.8 17.5
2020-Jan-22 14:00S 39°18' E 145°12'2827.7 998.2 12.7 17.0
2020-Jan-22 13:00S 39°42' E 145°30'2625.7 997.1 13.4 16.7
2020-Jan-22 12:00S 40°06' E 145°42'2827.6 997.8 14.7 16.8
2020-Jan-22 11:00S 40°30' E 146°00'2625.7 996.8 15.6 17.2
2020-Jan-22 10:00S 40°54' E 146°12'2020.1 995.8 17.9 18.0
2020-Jan-22 09:00S 41°12' E 146°24'0 0.0 997.0 19.6 19.8
2020-Jan-22 08:00S 41°12' E 146°24'0 0.0 995.4 19.8 19.3
2020-Jan-22 07:00S 41°12' E 146°24'0 0.0 995.9 18.8 19.3
2020-Jan-22 05:00S 41°12' E 146°24'0 0.0 999.8 19.3 19.4
2020-Jan-22 04:00S 41°12' E 146°24'0 0.0 999.3 19.6 19.2
2020-Jan-22 03:00S 41°12' E 146°24'0 0.0 1000.8 19.6 19.0
2020-Jan-22 02:00S 41°12' E 146°24'0 0.0 1002.0 18.3 18.7
2020-Jan-22 01:00S 41°12' E 146°24'0 0.0 1003.1 17.8 18.5
2020-Jan-22 00:00S 41°12' E 146°24'0 0.0 1003.9 17.0 18.5
2020-Jan-21 23:00S 41°12' E 146°24'0 0.0 1004.7 16.2
2020-Jan-21 22:00S 41°12' E 146°24'0 0.0 1005.1 15.4 18.5
2020-Jan-21 21:00S 41°12' E 146°24'2 3.3 1005.3 14.5 18.8
2020-Jan-21 20:25S 41°11' E 146°22'2 4.5
2020-Jan-21 20:00S 41°12' E 146°24'0 0.0 1005.5 15.0 19.0
2020-Jan-21 19:00S 41°12' E 146°24'1312.8 1005.6 14.8 19.6
2020-Jan-21 18:00S 41°00' E 146°18'2827.6 1004.9 14.4 17.1
2020-Jan-21 17:00S 40°36' E 146°00'2827.6 1005.0 14.3 16.7
2020-Jan-21 16:00S 40°12' E 145°42'2625.7 1005.3 14.4 16.6
2020-Jan-21 15:00S 39°48' E 145°30'2827.7 1005.9 14.5 16.8
2020-Jan-21 14:00S 39°24' E 145°12'2625.7 1006.4 14.6 17.2
2020-Jan-21 13:00S 39°00' E 145°00'2625.8 1006.5 15.0 17.9
2020-Jan-21 12:00S 38°36' E 144°48'1918.6 1006.7 15.5 18.8
2020-Jan-21 11:00S 38°18' E 144°42'1111.2 1007.9 15.5 19.9
2020-Jan-21 10:00S 38°12' E 144°54'1818.0 1006.5 16.0 21.2
2020-Jan-21 09:00S 37°54' E 144°54'6 6.0 1008.3 17.9 23.3
2020-Jan-21 08:00S 37°48' E 144°54'0 0.0 1007.3 18.2 22.2
2020-Jan-21 07:00S 37°48' E 144°54'0 0.0 1007.2 18.2 22.1
2020-Jan-21 06:00S 37°48' E 144°54'0 0.0 1007.4 18.1 21.5
2020-Jan-21 05:00S 37°48' E 144°54'0 0.0 1007.8 18.7 21.2
2020-Jan-21 03:00S 37°48' E 144°54'0 0.0 1009.1 17.8 21.0
2020-Jan-21 02:00S 37°48' E 144°54'0 0.0 1009.9 17.4 21.0
2020-Jan-21 01:00S 37°48' E 144°54'0 0.0 1010.4 17.5 20.9
2020-Jan-21 00:00S 37°48' E 144°54'0 0.0 1010.6 17.7 20.7
2020-Jan-20 23:00S 37°48' E 144°54'0 0.0 1010.8 16.4 20.7
2020-Jan-20 22:00S 37°48' E 144°54'6 6.0 1010.5 15.5 20.7
2020-Jan-20 21:00S 37°54' E 144°54'1212.0 1009.6 14.7 20.8
2020-Jan-20 20:00S 38°06' E 144°54'1515.3 1008.3 15.7 19.9
2020-Jan-20 19:00S 38°18' E 144°42'1918.6 1008.6 15.2 18.4
2020-Jan-20 18:00S 38°36' E 144°48'2625.8 1005.6 15.1 17.9
2020-Jan-20 17:00S 39°00' E 145°00'2827.8 1004.4 14.8 17.4
2020-Jan-20 16:00S 39°24' E 145°18'2827.7 1003.7 14.8 17.0
2020-Jan-20 15:00S 39°48' E 145°36'3131.4 1003.1 14.9 16.8
2020-Jan-20 14:00S 40°18' E 145°48'2123.9 1003.0 15.4 16.9
2020-Jan-20 13:08S 40°36' E 146°02'3128.0
2020-Jan-20 12:01S 41°04' E 146°20'4223.4
2020-Jan-20 12:00S 41°06' E 146°24'5 5.2 1004.0 19.4 19.2
2020-Jan-20 11:00S 41°11' E 146°22'2122.9
2020-Jan-20 11:00S 41°12' E 146°24'0 0.0 1004.2 20.9 18.5
2020-Jan-20 10:00S 41°12' E 146°24'2 3.8 1003.6 20.7 18.6
2020-Jan-20 09:30S 41°11' E 146°22'0 0.0
2020-Jan-20 09:00S 41°11' E 146°22'22290.3
2020-Jan-20 09:00S 41°12' E 146°24'6 6.0 1003.2 21.2 18.7
2020-Jan-20 08:00S 41°06' E 146°24'2424.9 1002.8 18.3 17.7
2020-Jan-20 07:00S 40°45' E 146°07'3194.2
2020-Jan-20 07:00S 40°42' E 146°06'2625.7 1002.9 17.3 17.0
2020-Jan-20 06:00S 40°18' E 145°54'2322.7 1003.8 16.4 16.7
2020-Jan-20 05:00S 40°00' E 145°36'2625.7 1004.4 16.6 16.8
2020-Jan-20 04:00S 39°36' E 145°24'2827.7 1004.6 15.7 17.2
2020-Jan-20 03:00S 39°12' E 145°06'2625.7 1004.7 15.3 17.7
2020-Jan-20 02:00S 38°48' E 144°54'3333.1 1003.9 16.1 18.4
2020-Jan-20 01:00S 38°18' E 144°36'1414.1 1003.5 17.1 18.7
2020-Jan-20 00:00S 38°18' E 144°54'2424.0 1003.5 18.5 20.7
2020-Jan-19 23:00S 37°54' E 144°54'6 6.0 1003.4 19.3 22.0
2020-Jan-19 22:00S 37°48' E 144°54'0 0.0 1004.0 19.6 21.5
2020-Jan-19 21:00S 37°48' E 144°54'0 0.0 1003.9 18.9 21.6
2020-Jan-19 20:00S 37°48' E 144°54'1212.0 1003.9 19.1 22.2
2020-Jan-19 19:00S 38°00' E 144°54'1818.0 1003.8 18.9 20.5
2020-Jan-19 18:00S 38°18' E 144°54'1515.3 1003.7 18.0 19.7
2020-Jan-19 17:00S 38°24' E 144°36'2827.8 1003.7 17.8 18.4
2020-Jan-19 16:00S 38°48' E 144°54'2827.8 1005.3 17.1
2020-Jan-19 15:00S 39°12' E 145°12'2625.7 1006.5 16.9 17.2
2020-Jan-19 14:00S 39°36' E 145°24'2827.7 1006.7 16.7 16.9
2020-Jan-19 13:00S 40°00' E 145°42'3131.4 1007.6 16.6
2020-Jan-19 12:00S 40°30' E 145°54'2424.6 1010.2 16.4 16.9
2020-Jan-19 11:00S 40°50' E 146°11'4221.4
2020-Jan-19 11:00S 40°54' E 146°12'1021.4 1011.0 17.0 17.8
2020-Jan-19 10:30S 41°03' E 146°19'816.8
2020-Jan-19 10:00S 41°11' E 146°22'2135.5
2020-Jan-19 10:00S 41°12' E 146°24'0 0.0 1010.8 18.0 19.9
2020-Jan-19 09:00S 41°12' E 146°24'2 3.1 1009.7 17.8 18.5
2020-Jan-19 08:23S 41°11' E 146°22'2 4.9
2020-Jan-19 08:00S 41°12' E 146°24'0 0.0 1009.2 18.1 18.7
2020-Jan-19 07:00S 41°12' E 146°24'1021.3 1008.9 18.0 18.9
2020-Jan-19 06:31S 41°02' E 146°19'4328.3
2020-Jan-19 05:00S 40°24' E 145°54'2827.7 1007.7 16.5 16.6
2020-Jan-19 04:00S 40°00' E 145°36'2625.7 1007.8 16.7 16.7
2020-Jan-19 03:00S 39°36' E 145°24'2827.7 1006.7 16.8 17.2
2020-Jan-19 02:00S 39°12' E 145°06'2625.7 1006.4 17.6 17.7
2020-Jan-19 01:00S 38°48' E 144°54'3015.0 1005.6 18.4 18.4
2020-Jan-18 23:00S 38°18' E 144°54'2424.0 1006.2 18.6 20.3
2020-Jan-18 22:00S 37°54' E 144°54'6 6.0 1006.5 18.5 21.3
2020-Jan-18 21:00S 37°48' E 144°54'0 0.0 1006.1 18.1 20.9
2020-Jan-18 20:00S 37°48' E 144°54'6 3.0 1005.6 17.9 21.0
2020-Jan-18 18:00S 37°54' E 144°54'2424.0 1004.3 17.8 20.4
2020-Jan-18 17:00S 38°18' E 144°54'1414.1 1004.3 18.0 19.6
2020-Jan-18 16:00S 38°18' E 144°36'2625.8 1005.0 18.2 18.2
2020-Jan-18 15:00S 38°42' E 144°48'2322.8 1005.5 17.6 17.7
2020-Jan-18 14:00S 39°00' E 145°06'2625.7 1006.4 17.6 17.3
2020-Jan-18 13:00S 39°24' E 145°18'2827.7 1006.9 16.7 16.9
2020-Jan-18 12:00S 39°48' E 145°36'3131.4 1008.9 16.6 16.7
2020-Jan-18 11:00S 40°18' E 145°48'2827.6 1009.5 15.9 16.7
2020-Jan-18 10:00S 40°42' E 146°06'396.6 1010.4 15.7 17.2
2020-Jan-18 09:58S 40°40' E 146°04'2828.9
2020-Jan-18 09:00S 41°06' E 146°18'8 7.5 1011.0 16.4 18.5
2020-Jan-18 08:00S 41°12' E 146°24'0 0.0 1012.5 17.0 18.4
2020-Jan-18 07:00S 41°12' E 146°24'2 2.3 1012.5 17.0 18.5
2020-Jan-18 06:09S 41°11' E 146°22'212.4
2020-Jan-18 06:00S 41°12' E 146°24'227.4 1013.4 16.9 18.6
2020-Jan-18 05:55S 41°11' E 146°22'2 2.1
2020-Jan-18 05:00S 41°12' E 146°24'0 0.0 1013.6 16.8 18.8
2020-Jan-18 04:00S 41°12' E 146°24'0 0.0 1014.0 16.6 18.9
2020-Jan-18 03:00S 41°12' E 146°24'0 0.0 1014.5 17.1 18.8
2020-Jan-18 02:00S 41°12' E 146°24'230.9 1014.9 17.6 18.8
2020-Jan-18 01:56S 41°11' E 146°22'0 0.0
2020-Jan-18 01:00S 41°11' E 146°22'2118.7
2020-Jan-18 01:00S 41°12' E 146°24'2 1.9 1015.7 17.4 18.6
2020-Jan-18 00:00S 41°11' E 146°22'2118.5
2020-Jan-18 00:00S 41°12' E 146°24'0 0.0 1016.5 16.6 18.6
2020-Jan-17 23:00S 41°12' E 146°24'2827.6 1016.8 14.5 17.3
2020-Jan-17 22:00S 40°48' E 146°06'2625.7 1015.5 13.8 16.8
2020-Jan-17 21:00S 40°24' E 145°54'2827.7 1013.7 14.9 16.6
2020-Jan-17 20:00S 40°00' E 145°36'2625.7 1012.3 15.3 16.7
2020-Jan-17 19:00S 39°36' E 145°24'2827.7 1010.3 15.3 16.9
2020-Jan-17 18:00S 39°12' E 145°06'2625.7 1007.9 15.9 17.5
2020-Jan-17 17:00S 38°48' E 144°54'2625.8 1009.5 16.5 17.9
2020-Jan-17 16:00S 38°24' E 144°42'1111.2 1010.4 16.8 18.8
2020-Jan-17 15:00S 38°18' E 144°54'1818.0 1012.0 16.6 20.1
2020-Jan-17 14:00S 38°00' E 144°54'1212.0 1009.7 16.6 20.8
2020-Jan-17 13:00S 37°48' E 144°54'0 0.0 1010.8 16.4 20.7
2020-Jan-17 12:00S 37°48' E 144°54'0 0.0 1010.9 16.8 20.9
2020-Jan-17 11:00S 37°48' E 144°54'0 0.0 1010.6 17.2 21.0
2020-Jan-17 10:00S 37°48' E 144°54'1212.0 1010.2 18.1 22.2
2020-Jan-17 09:00S 38°00' E 144°54'1918.6 1009.4 18.4 20.2
2020-Jan-17 08:00S 38°18' E 144°48'1312.9 1010.5 18.7 18.8
2020-Jan-17 07:00S 38°30' E 144°42'3333.1 1012.1 17.4 18.0
2020-Jan-17 06:00S 39°00' E 145°00'2827.8 1013.8 16.4 17.4
2020-Jan-17 05:00S 39°24' E 145°18'2625.7 1015.0 16.0 17.0
2020-Jan-17 04:00S 39°48' E 145°30'2827.7 1016.0 15.4
2020-Jan-17 03:00S 40°12' E 145°48'2625.7 1016.7 15.7 16.9
2020-Jan-17 02:00S 40°36' E 146°00'2827.6 1017.2 15.6 17.3
2020-Jan-17 01:00S 41°00' E 146°18'1122.3 1017.3 15.7 18.2
2020-Jan-17 00:31S 41°10' E 146°22'2 4.4
2020-Jan-17 00:00S 41°12' E 146°24'0 0.0 1017.3 16.4 18.3
2020-Jan-16 23:00S 41°12' E 146°24'0 0.0 1017.4 14.8
2020-Jan-16 22:00S 41°12' E 146°24'0 0.0 1017.4 13.9 18.1
2020-Jan-16 21:00S 41°12' E 146°24'1918.6 1016.6 11.8 18.5
2020-Jan-16 20:00S 40°54' E 146°18'2827.6 1014.4 13.0 17.0
2020-Jan-16 19:00S 40°30' E 146°00'2827.6 1013.2 14.5 16.7
2020-Jan-16 18:00S 40°06' E 145°42'2625.7 1013.6 15.7 16.7
2020-Jan-16 17:00S 39°42' E 145°30'2827.7 1012.2 15.9 16.8
2020-Jan-16 16:00S 39°18' E 145°12'2625.7 1010.7 16.4 17.3
2020-Jan-16 15:00S 38°54' E 145°00'2625.8 1011.8 14.6 17.6
2020-Jan-16 14:00S 38°30' E 144°48'1212.0 1013.3 14.3 18.7
2020-Jan-16 13:00S 38°18' E 144°48'1918.6 1015.2 14.2 19.9
2020-Jan-16 12:00S 38°00' E 144°54'1212.0 1014.3 14.6
2020-Jan-16 11:00S 37°48' E 144°54'0 0.0 1014.9 15.6 21.3
2020-Jan-16 10:00S 37°48' E 144°54'0 0.0 1014.0 15.9 21.0
2020-Jan-16 09:00S 37°48' E 144°54'0 0.0 1013.4 16.1 21.2
2020-Jan-16 08:00S 37°48' E 144°54'1212.0 1013.0 16.6 21.5
2020-Jan-16 07:00S 38°00' E 144°54'1818.0 1013.3 16.3 20.4
2020-Jan-16 06:00S 38°18' E 144°54'1515.2 1012.4 15.7 19.3
2020-Jan-16 05:00S 38°30' E 144°42'2827.8 1013.3 15.6 18.2
2020-Jan-16 04:00S 38°54' E 145°00'2625.7 1012.9 15.3 17.5
2020-Jan-16 03:00S 39°18' E 145°12'2827.7 1012.0 14.9 17.1
2020-Jan-16 02:00S 39°42' E 145°30'2827.7 1010.3 15.2 16.9
2020-Jan-16 01:00S 40°06' E 145°48'4526.9 1008.6 15.5 16.8
2020-Jan-15 23:20S 40°48' E 146°10'1441.3
2020-Jan-15 23:00S 41°00' E 146°18'817.4 1006.1 17.6 18.2
2020-Jan-15 22:30S 41°08' E 146°22'4 8.6
2020-Jan-15 22:00S 41°12' E 146°24'0 0.0 1006.5 18.0 19.1
2020-Jan-15 21:00S 41°12' E 146°24'0 0.0 1006.2 18.0 18.9
2020-Jan-15 20:00S 41°12' E 146°24'2 2.4 1006.0 17.8 18.8
2020-Jan-15 19:11S 41°11' E 146°22'210.0
2020-Jan-15 19:00S 41°12' E 146°24'1312.8 1005.6 17.6 19.9
2020-Jan-15 18:01S 41°00' E 146°17'137.0
2020-Jan-15 18:00S 41°00' E 146°18'2827.6 1005.0 17.3 17.2
2020-Jan-15 17:00S 40°36' E 146°00'2625.7 1005.3 17.0 16.7
2020-Jan-15 16:00S 40°12' E 145°48'2827.7 1006.2 16.0 16.7
2020-Jan-15 15:00S 39°48' E 145°30'2827.7 1006.8 16.4
2020-Jan-15 14:00S 39°24' E 145°12'2625.7 1007.7 16.9 17.6
2020-Jan-15 13:00S 39°00' E 145°00'3131.4 1008.7 17.2 18.1
2020-Jan-15 12:00S 38°30' E 144°48'2412.2 1009.7 17.6 19.1
2020-Jan-15 10:00S 38°06' E 144°54'1818.0 1008.6 20.7 21.4
2020-Jan-15 09:00S 37°48' E 144°54'0 0.0 1009.1 20.0 22.0
2020-Jan-15 08:00S 37°48' E 144°54'0 0.0 1009.5 20.1 21.0
2020-Jan-15 07:00S 37°48' E 144°54'0 0.0 1007.7 20.9 21.1
2020-Jan-15 06:00S 37°48' E 144°54'0 0.0 1005.3 21.6 21.4
2020-Jan-15 05:00S 37°48' E 144°54'0 0.0 1003.2 26.7 20.9
2020-Jan-15 04:00S 37°48' E 144°54'0 0.0 1003.0 36.0 20.9
2020-Jan-15 03:00S 37°48' E 144°54'0 0.0 1004.8 35.3 21.0
2020-Jan-15 02:00S 37°48' E 144°54'0 0.0 1005.6 34.7 21.0
2020-Jan-15 01:00S 37°48' E 144°54'0 0.0 1006.4 33.8 21.1
2020-Jan-15 00:00S 37°48' E 144°54'0 0.0 1006.8 31.8 21.2
2020-Jan-14 23:00S 37°48' E 144°54'0 0.0 1007.5 30.4 21.2
2020-Jan-14 21:00S 37°48' E 144°54'0 0.0 1007.9 25.6 21.7
2020-Jan-14 20:00S 37°48' E 144°54'0 0.0 1007.8 22.8 21.8
2020-Jan-14 19:00S 37°48' E 144°54'1212.0 1007.8 22.6 23.0
2020-Jan-14 18:00S 38°00' E 144°54'1818.0 1007.6 21.3 20.7
2020-Jan-14 17:00S 38°18' E 144°54'1515.2 1007.1 23.0 19.5
2020-Jan-14 16:00S 38°30' E 144°42'2827.8 1008.3 20.5 18.5
2020-Jan-14 15:00S 38°54' E 145°00'2122.9 1009.3 19.3 17.9
2020-Jan-14 14:03S 39°14' E 145°11'572.0
2020-Jan-14 14:00S 39°18' E 145°12'2625.7 1010.9 18.7 17.6
2020-Jan-14 13:00S 39°42' E 145°24'2827.7 1011.7 17.1 17.1
2020-Jan-14 12:00S 40°06' E 145°42'1321.6 1013.5 16.9 17.0
2020-Jan-14 11:25S 40°17' E 145°50'1331.9
2020-Jan-14 11:00S 40°30' E 145°54'822.8 1014.9 17.7 17.2
2020-Jan-14 10:37S 40°36' E 146°02'1626.6
2020-Jan-14 10:00S 40°51' E 146°11'3209.9
2020-Jan-14 10:00S 40°54' E 146°12'2020.1 1015.4 18.0 18.0
2020-Jan-14 09:00S 41°12' E 146°24'0 0.0 1016.4 20.5 21.1
2020-Jan-14 08:00S 41°12' E 146°24'0 0.0 1015.8 20.8 18.9
2020-Jan-14 07:00S 41°12' E 146°24'2 1.9 1015.5 21.3 18.5
2020-Jan-14 06:00S 41°11' E 146°22'2185.7
2020-Jan-14 06:00S 41°12' E 146°24'2 3.9 1015.8 21.4 18.3
2020-Jan-14 05:31S 41°11' E 146°22'2 3.7
2020-Jan-14 05:00S 41°12' E 146°24'0 0.0 1016.0 22.1 18.2
2020-Jan-14 04:00S 41°12' E 146°24'0 0.0 1016.3 22.0 18.1
2020-Jan-14 03:00S 41°12' E 146°24'0 0.0 1016.9 21.7 18.2
2020-Jan-14 02:00S 41°12' E 146°24'0 0.0 1017.2 22.4 18.6
2020-Jan-14 01:00S 41°12' E 146°24'2105.7 1017.6 23.1 18.8
2020-Jan-14 00:58S 41°11' E 146°22'2 1.9
2020-Jan-14 00:00S 41°12' E 146°24'   1018.0 22.0 18.9

Dump ship's entire track history